createdAt,value
2023-04-18T00:01:12.487Z,62.69
2023-04-18T00:06:14.987Z,62.31
2023-04-18T00:11:17.464Z,61.04
2023-04-18T00:16:20.018Z,64.17
2023-04-18T00:21:22.718Z,65.19
2023-04-18T00:26:25.790Z,63.79
2023-04-18T00:31:28.399Z,62.94
2023-04-18T00:36:31.076Z,62.55
2023-04-18T00:41:33.664Z,62.26
2023-04-18T00:46:36.216Z,61.61
2023-04-18T00:51:39.580Z,60.83
2023-04-18T00:56:42.491Z,60.86
2023-04-18T01:01:45.301Z,60.97
2023-04-18T01:06:47.937Z,60.78
2023-04-18T01:11:50.487Z,61.14
2023-04-18T01:16:53.239Z,61.21
2023-04-18T01:21:55.779Z,61.35
2023-04-18T01:27:03.131Z,61.49
2023-04-18T01:32:06.418Z,61.64
2023-04-18T01:37:08.994Z,61.85
2023-04-18T01:42:11.553Z,61.73
2023-04-18T01:47:14.090Z,61.46
2023-04-18T01:52:17.383Z,61.78
2023-04-18T01:57:19.962Z,61.93
2023-04-18T02:02:22.852Z,62.08
2023-04-18T02:07:25.670Z,62.11
2023-04-18T02:12:28.139Z,62.03
2023-04-18T02:17:30.863Z,61.76
2023-04-18T02:22:33.585Z,61.90
2023-04-18T02:27:36.726Z,61.95
2023-04-18T02:32:39.323Z,61.53
2023-04-18T02:37:41.931Z,61.37
2023-04-18T02:42:44.788Z,61.35
2023-04-18T02:47:55.203Z,61.53
2023-04-18T02:52:58.392Z,61.59
2023-04-18T02:58:00.965Z,61.62
2023-04-18T03:03:03.850Z,61.64
2023-04-18T03:08:06.561Z,61.70
2023-04-18T03:13:09.071Z,61.81
2023-04-18T03:18:12.449Z,61.56
2023-04-18T03:23:14.986Z,61.62
2023-04-18T03:28:17.543Z,61.18
2023-04-18T03:33:20.088Z,60.78
2023-04-18T03:38:22.670Z,60.45
2023-04-18T03:43:25.357Z,60.63
2023-04-18T03:48:29.003Z,60.93
2023-04-18T03:53:31.694Z,60.74
2023-04-18T03:58:34.259Z,60.93
2023-04-18T04:03:37.158Z,60.46
2023-04-18T04:08:39.833Z,60.48
2023-04-18T04:13:42.374Z,60.38
2023-04-18T04:18:45.111Z,60.52
2023-04-18T04:23:48.000Z,60.29
2023-04-18T04:28:51.589Z,60.41
2023-04-18T04:33:54.148Z,60.58
2023-04-18T04:38:56.863Z,60.18
2023-04-18T04:44:01.841Z,59.95
2023-04-18T04:49:04.479Z,59.65
2023-04-18T04:54:07.109Z,59.66
2023-04-18T04:59:09.712Z,59.73
2023-04-18T05:04:12.891Z,59.96
2023-04-18T05:09:15.789Z,60.30
2023-04-18T05:14:18.706Z,60.38
2023-04-18T05:19:21.280Z,60.15
2023-04-18T05:24:23.883Z,59.98
2023-04-18T05:29:26.487Z,59.81
2023-04-18T05:34:29.144Z,59.78
2023-04-18T05:39:32.327Z,59.10
2023-04-18T05:44:34.918Z,62.55
2023-04-18T05:49:37.469Z,64.09
2023-04-18T05:54:40.152Z,61.21
2023-04-18T05:59:42.894Z,59.67
2023-04-18T06:04:46.187Z,59.95
2023-04-18T06:09:49.745Z,65.47
2023-04-18T06:14:52.365Z,64.57
2023-04-18T06:19:54.856Z,60.72
2023-04-18T06:24:57.497Z,59.07
2023-04-18T06:30:00.028Z,64.38
2023-04-18T06:35:02.706Z,63.58
2023-04-18T06:40:05.918Z,60.61
2023-04-18T06:45:10.722Z,59.27
2023-04-18T06:50:14.039Z,63.09
2023-04-18T06:55:16.603Z,60.64
2023-04-18T07:00:19.424Z,56.31
2023-04-18T07:05:22.054Z,57.71
2023-04-18T07:10:24.661Z,61.57
2023-04-18T07:15:27.198Z,64.20
2023-04-18T07:20:29.971Z,57.82
2023-04-18T07:25:32.556Z,58.88
2023-04-18T07:30:35.093Z,61.43
2023-04-18T07:35:37.699Z,55.76
2023-04-18T07:40:40.312Z,58.09
2023-04-18T07:45:43.287Z,61.40
2023-04-18T07:50:45.894Z,62.36
2023-04-18T07:55:48.981Z,52.94
2023-04-18T08:00:51.586Z,55.26
2023-04-18T08:05:54.089Z,57.12
2023-04-18T08:10:56.661Z,57.61
2023-04-18T08:16:00.114Z,58.13
2023-04-18T08:21:02.867Z,58.75
2023-04-18T08:26:05.424Z,58.32
2023-04-18T08:31:11.967Z,56.58
2023-04-18T08:36:14.531Z,57.45
2023-04-18T08:41:21.533Z,58.12
2023-04-18T08:46:24.153Z,57.81
2023-04-18T08:51:30.630Z,56.88
2023-04-18T08:56:33.167Z,56.94
2023-04-18T09:02:06.395Z,56.47
2023-04-18T09:07:10.851Z,55.61
2023-04-18T09:12:32.687Z,55.38
2023-04-18T09:17:45.492Z,55.30
2023-04-18T09:22:51.970Z,54.55
2023-04-18T09:27:57.230Z,52.34
2023-04-18T09:33:01.347Z,52.26
2023-04-18T09:38:04.848Z,52.79
2023-04-18T09:43:20.457Z,53.19
2023-04-18T09:48:23.031Z,52.53
2023-04-18T09:53:26.623Z,51.59
2023-04-18T09:58:32.866Z,51.11
2023-04-18T10:03:44.319Z,50.22
2023-04-18T10:08:49.027Z,50.16
2023-04-18T10:13:57.416Z,48.94
2023-04-18T10:19:29.496Z,49.76
2023-04-18T10:24:55.972Z,48.94
2023-04-18T10:29:58.603Z,47.66
2023-04-18T10:35:01.781Z,46.52
2023-04-18T10:40:07.315Z,46.99
2023-04-18T10:45:26.992Z,46.71
2023-04-18T10:50:29.713Z,44.93
2023-04-18T10:55:32.299Z,44.92
2023-04-18T11:00:35.267Z,45.64
2023-04-18T11:05:37.970Z,46.35
2023-04-18T11:10:41.116Z,47.34
2023-04-18T11:15:43.710Z,47.59
2023-04-18T11:20:51.188Z,44.91
2023-04-18T11:25:56.398Z,43.89
2023-04-18T11:31:00.246Z,43.77
2023-04-18T11:36:03.061Z,42.55
2023-04-18T11:41:05.744Z,41.72
2023-04-18T11:46:08.512Z,43.06
2023-04-18T11:51:35.565Z,43.57
2023-04-18T11:56:48.582Z,44.68
2023-04-18T12:02:08.851Z,44.63
2023-04-18T12:07:33.547Z,44.20
2023-04-18T12:12:36.548Z,45.37
2023-04-18T12:17:40.156Z,45.94
2023-04-18T12:22:45.650Z,45.30
2023-04-18T12:27:49.858Z,44.91
2023-04-18T12:32:59.916Z,44.75
2023-04-18T12:38:03.221Z,44.52
2023-04-18T12:43:05.901Z,45.43
2023-04-18T12:48:08.733Z,46.78
2023-04-18T12:53:11.309Z,46.47
2023-04-18T12:58:18.429Z,45.63
2023-04-18T13:03:21.623Z,46.37
2023-04-18T13:08:24.245Z,46.55
2023-04-18T13:13:26.766Z,44.81
2023-04-18T13:18:29.274Z,43.22
2023-04-18T13:23:31.886Z,43.50
2023-04-18T13:28:34.486Z,44.47
2023-04-18T13:33:37.088Z,46.43
2023-04-18T13:38:39.656Z,47.78
2023-04-18T13:43:42.278Z,48.98
2023-04-18T13:48:45.313Z,49.91
2023-04-18T13:53:47.862Z,50.75
2023-04-18T13:58:51.044Z,51.68
2023-04-18T14:03:54.768Z,52.89
2023-04-18T14:08:58.547Z,54.24
2023-04-18T14:14:01.975Z,55.99
2023-04-18T14:19:04.663Z,56.10
2023-04-18T14:24:08.148Z,55.75
2023-04-18T14:29:11.224Z,54.51
2023-04-18T14:34:13.864Z,53.00
2023-04-18T14:39:16.602Z,53.12
2023-04-18T14:44:19.211Z,54.09
2023-04-18T14:49:22.114Z,55.09
2023-04-18T14:54:24.784Z,56.49
2023-04-18T14:59:28.745Z,57.11
2023-04-18T15:04:31.434Z,57.33
2023-04-18T15:09:37.737Z,56.56
2023-04-18T15:14:40.823Z,57.15
2023-04-18T15:19:43.400Z,57.56
2023-04-18T15:24:47.413Z,58.47
2023-04-18T15:29:49.976Z,59.65
2023-04-18T15:34:52.578Z,60.62
2023-04-18T15:39:55.299Z,62.31
2023-04-18T15:44:58.068Z,58.60
2023-04-18T15:50:00.957Z,56.90
2023-04-18T15:55:05.124Z,59.11
2023-04-18T16:00:16.100Z,59.68
2023-04-18T16:05:18.994Z,61.41
2023-04-18T16:10:21.939Z,61.96
2023-04-18T16:15:24.538Z,58.34
2023-04-18T16:20:27.928Z,60.07
2023-04-18T16:25:30.686Z,61.49
2023-04-18T16:30:33.238Z,63.07
2023-04-18T16:35:35.780Z,57.65
2023-04-18T16:40:38.608Z,60.46
2023-04-18T16:45:41.404Z,62.66
2023-04-18T16:50:47.011Z,61.17
2023-04-18T16:55:50.412Z,58.23
2023-04-18T17:00:53.214Z,60.95
2023-04-18T17:05:56.015Z,63.92
2023-04-18T17:10:59.639Z,59.19
2023-04-18T17:16:02.417Z,58.32
2023-04-18T17:21:05.011Z,60.47
2023-04-18T17:26:08.946Z,62.40
2023-04-18T17:31:14.794Z,58.54
2023-04-18T17:36:17.615Z,59.51
2023-04-18T17:41:24.062Z,62.70
2023-04-18T17:46:26.866Z,60.61
2023-04-18T17:51:29.781Z,58.47
2023-04-18T17:56:32.478Z,62.19
2023-04-18T18:01:37.741Z,61.76
2023-04-18T18:06:42.215Z,59.48
2023-04-18T18:11:44.865Z,62.81
2023-04-18T18:16:47.429Z,61.29
2023-04-18T18:21:50.545Z,59.20
2023-04-18T18:26:53.323Z,63.54
2023-04-18T18:31:56.350Z,62.52
2023-04-18T18:36:58.981Z,60.19
2023-04-18T18:42:02.419Z,63.37
2023-04-18T18:47:05.791Z,61.98
2023-04-18T18:52:08.317Z,59.14
2023-04-18T18:57:12.086Z,62.93
2023-04-18T19:02:23.961Z,61.67
2023-04-18T19:07:28.875Z,58.57
2023-04-18T19:12:32.611Z,61.49
2023-04-18T19:17:35.769Z,64.80
2023-04-18T19:22:39.136Z,60.85
2023-04-18T19:27:42.413Z,57.62
2023-04-18T19:32:45.835Z,61.52
2023-04-18T19:37:48.648Z,63.71
2023-04-18T19:42:51.255Z,58.87
2023-04-18T19:47:53.915Z,58.28
2023-04-18T19:52:56.559Z,61.67
2023-04-18T19:58:00.024Z,59.25
2023-04-18T20:03:02.898Z,56.84
2023-04-18T20:08:06.023Z,58.19
2023-04-18T20:13:08.761Z,59.27
2023-04-18T20:18:11.686Z,62.40
2023-04-18T20:23:14.513Z,63.54
2023-04-18T20:28:17.188Z,58.26
2023-04-18T20:33:19.823Z,61.12
2023-04-18T20:38:26.176Z,63.30
2023-04-18T20:43:28.914Z,58.21
2023-04-18T20:48:31.468Z,61.27
2023-04-18T20:53:34.108Z,65.31
2023-04-18T20:58:36.684Z,60.88
2023-04-18T21:03:39.321Z,56.75
2023-04-18T21:08:42.067Z,61.08
2023-04-18T21:13:44.654Z,64.65
2023-04-18T21:18:47.196Z,58.95
2023-04-18T21:23:49.755Z,58.89
2023-04-18T21:28:57.841Z,63.10
2023-04-18T21:34:02.759Z,60.63
2023-04-18T21:39:05.541Z,58.94
2023-04-18T21:44:08.152Z,62.97
2023-04-18T21:49:10.738Z,59.32
2023-04-18T21:54:13.779Z,59.48
2023-04-18T21:59:19.504Z,63.67
2023-04-18T22:04:26.126Z,59.04
2023-04-18T22:09:29.669Z,60.29
2023-04-18T22:14:32.319Z,65.80
2023-04-18T22:19:35.619Z,61.88
2023-04-18T22:24:38.198Z,57.99
2023-04-18T22:29:40.919Z,60.90
2023-04-18T22:34:44.735Z,63.57
2023-04-18T22:39:47.294Z,60.05
2023-04-18T22:44:49.892Z,58.40
2023-04-18T22:49:56.435Z,63.58
2023-04-18T22:54:58.943Z,62.31
2023-04-18T23:00:01.552Z,58.65
2023-04-18T23:05:05.812Z,63.31
2023-04-18T23:10:09.195Z,62.79
2023-04-18T23:15:11.981Z,59.39
2023-04-18T23:20:14.675Z,63.82
2023-04-18T23:25:17.586Z,61.07
2023-04-18T23:30:20.168Z,58.40
2023-04-18T23:35:22.666Z,60.87
2023-04-18T23:40:25.364Z,65.23
2023-04-18T23:45:31.040Z,61.39
2023-04-18T23:50:35.432Z,59.07
2023-04-18T23:55:37.986Z,63.97
